Time;durP1;ratioP1;P1;durP2;ratioP2;P2;SDS_P1;SDS_P2;PMS_P1;PMS_P2;Temp;Humidity;BMP_temperature;BMP_pressure;BME280_temperature;BME280_humidity;BME280_pressure;Samples;Min_cycle;Max_cycle;Signal;HPM_P1;HPM_P2
2023/01/31 00:00:25;;;;;;;13.73;2.60;;;;;;;4.20;100.00;101656.78;5024432;28;20175;-72
2023/01/31 00:02:50;;;;;;;14.87;2.87;;;;;;;4.22;100.00;101660.25;5029987;28;20214;-74
2023/01/31 00:05:16;;;;;;;17.13;2.90;;;;;;;4.24;100.00;101671.34;5039241;28;20195;-72
2023/01/31 00:07:41;;;;;;;17.73;3.50;;;;;;;4.27;100.00;101665.59;5028929;28;20271;-71
2023/01/31 00:10:07;;;;;;;18.93;3.30;;;;;;;4.27;100.00;101673.19;5032466;28;20197;-73
2023/01/31 00:12:33;;;;;;;16.70;3.07;;;;;;;4.25;100.00;101670.59;5031294;28;20721;-72
2023/01/31 00:14:59;;;;;;;13.53;2.60;;;;;;;4.27;100.00;101679.13;5029126;28;20202;-74
2023/01/31 00:17:24;;;;;;;14.37;2.50;;;;;;;4.26;100.00;101674.88;5031031;28;20194;-73
2023/01/31 00:19:49;;;;;;;16.23;3.00;;;;;;;4.24;100.00;101676.41;5030576;28;20187;-74
2023/01/31 00:22:15;;;;;;;14.53;3.30;;;;;;;4.23;100.00;101672.16;5030658;28;20296;-74
2023/01/31 00:24:40;;;;;;;18.80;2.77;;;;;;;4.22;100.00;101672.06;5028091;28;20286;-73
2023/01/31 00:27:07;;;;;;;18.53;3.07;;;;;;;4.21;100.00;101667.78;5030250;28;20198;-74
2023/01/31 00:29:33;;;;;;;19.47;3.57;;;;;;;4.18;100.00;101671.00;5027244;28;20804;-72
2023/01/31 00:31:58;;;;;;;20.27;2.90;;;;;;;4.14;100.00;101670.75;5027516;28;20215;-72
2023/01/31 00:34:24;;;;;;;13.97;2.30;;;;;;;4.08;100.00;101673.81;5030679;28;20652;-73
2023/01/31 00:36:49;;;;;;;11.43;2.90;;;;;;;4.04;100.00;101679.47;5035884;28;20221;-73
2023/01/31 00:39:15;;;;;;;17.87;2.63;;;;;;;4.01;100.00;101691.09;5028355;28;20619;-72
2023/01/31 00:41:43;;;;;;;14.77;2.60;;;;;;;3.97;100.00;101687.50;5028161;28;20215;-73
2023/01/31 00:44:11;;;;;;;13.97;2.60;;;;;;;3.96;100.00;101687.41;5026452;28;20313;-72
2023/01/31 00:46:37;;;;;;;12.80;2.43;;;;;;;3.92;100.00;101693.09;5021062;28;20313;-71
2023/01/31 00:49:03;;;;;;;18.90;3.23;;;;;;;3.91;100.00;101701.47;5029001;28;20829;-72
2023/01/31 00:51:28;;;;;;;16.80;2.33;;;;;;;3.90;100.00;101703.13;5033043;28;20297;-73
2023/01/31 00:53:54;;;;;;;11.03;3.03;;;;;;;3.94;100.00;101694.91;5024392;28;20659;-73
2023/01/31 00:56:22;;;;;;;15.53;2.70;;;;;;;4.00;100.00;101690.19;5025705;28;20191;-71
2023/01/31 00:58:48;;;;;;;13.73;2.80;;;;;;;4.05;100.00;101708.22;5027625;28;20226;-72
2023/01/31 01:01:34;;;;;;;18.23;2.47;;;;;;;4.09;100.00;101693.28;5024904;28;20317;-73
2023/01/31 01:04:00;;;;;;;20.77;3.17;;;;;;;4.10;100.00;101695.03;5030159;28;20216;-71
2023/01/31 01:06:31;;;;;;;19.30;2.97;;;;;;;4.12;100.00;101700.19;5027810;28;20604;-72
2023/01/31 01:08:58;;;;;;;14.80;3.00;;;;;;;4.12;100.00;101713.75;5027366;28;20607;-73
2023/01/31 01:11:29;;;;;;;16.60;2.97;;;;;;;4.09;100.00;101705.94;5028088;28;20301;-73
2023/01/31 01:13:56;;;;;;;18.60;3.63;;;;;;;4.08;100.00;101709.28;5029281;28;20324;-73
2023/01/31 01:16:29;;;;;;;17.37;3.67;;;;;;;4.09;100.00;101717.75;5009518;28;20667;-72
2023/01/31 01:18:55;;;;;;;15.40;3.00;;;;;;;4.11;100.00;101737.34;5029388;28;20221;-72
2023/01/31 01:21:26;;;;;;;20.97;3.17;;;;;;;4.12;100.00;101748.31;5029641;28;20584;-73
2023/01/31 01:23:52;;;;;;;18.87;3.47;;;;;;;4.04;100.00;101724.19;5025428;28;20190;-73
2023/01/31 01:26:23;;;;;;;19.07;3.03;;;;;;;3.92;100.00;101710.81;5028296;28;20194;-73
2023/01/31 01:28:50;;;;;;;16.80;3.03;;;;;;;3.84;100.00;101724.66;5024260;28;20281;-71
2023/01/31 01:31:17;;;;;;;22.20;3.57;;;;;;;3.77;100.00;101705.69;5028193;28;20222;-73
2023/01/31 01:33:44;;;;;;;22.27;4.00;;;;;;;3.74;100.00;101709.72;5030733;28;20236;-72
2023/01/31 01:36:12;;;;;;;18.90;3.27;;;;;;;3.69;100.00;101709.41;5027170;28;20268;-73
2023/01/31 01:38:41;;;;;;;19.90;3.03;;;;;;;3.64;100.00;101710.81;5025382;28;20210;-71
2023/01/31 01:41:09;;;;;;;21.33;3.63;;;;;;;3.62;100.00;101711.50;5026909;28;20218;-73
2023/01/31 01:43:39;;;;;;;17.77;3.10;;;;;;;3.62;100.00;101730.09;5026359;28;20408;-74
2023/01/31 01:46:07;;;;;;;21.07;3.37;;;;;;;3.63;100.00;101724.25;5030259;28;20256;-72
2023/01/31 01:48:33;;;;;;;17.37;3.43;;;;;;;3.64;100.00;101730.19;5025130;28;20182;-73
2023/01/31 01:51:03;;;;;;;19.23;3.40;;;;;;;3.68;100.00;101729.63;5028586;28;20225;-73
2023/01/31 01:53:30;;;;;;;20.10;3.53;;;;;;;3.69;100.00;101726.28;5014649;28;20205;-74
2023/01/31 01:56:10;;;;;;;27.40;3.40;;;;;;;3.67;100.00;101743.91;5029087;28;20206;-73
2023/01/31 01:58:43;;;;;;;19.73;3.73;;;;;;;3.66;100.00;101747.25;5023151;28;20692;-73
2023/01/31 02:01:12;;;;;;;17.43;3.23;;;;;;;3.70;100.00;101748.28;5026135;28;20250;-73
2023/01/31 02:03:39;;;;;;;17.80;3.27;;;;;;;3.69;100.00;101751.59;5029009;28;20202;-72
2023/01/31 02:06:05;;;;;;;12.20;2.57;;;;;;;3.72;100.00;101747.59;5029544;28;20204;-73
2023/01/31 02:08:33;;;;;;;20.33;3.20;;;;;;;3.73;100.00;101740.88;5026570;28;20190;-71
2023/01/31 02:11:05;;;;;;;16.43;2.60;;;;;;;3.73;100.00;101740.88;5040016;28;20203;-73
2023/01/31 02:13:30;;;;;;;15.50;2.57;;;;;;;3.75;100.00;101749.44;5025231;28;20209;-73
2023/01/31 02:15:57;;;;;;;20.53;3.13;;;;;;;3.79;100.00;101764.03;5024352;28;20195;-71
2023/01/31 02:18:24;;;;;;;17.80;3.10;;;;;;;3.82;100.00;101764.25;5026371;28;20218;-72
2023/01/31 02:21:04;;;;;;;20.70;3.40;;;;;;;3.84;100.00;101766.09;5023158;28;20253;-73
2023/01/31 02:23:42;;;;;;;16.87;3.73;;;;;;;3.82;100.00;101757.50;5023192;28;20293;-71
2023/01/31 02:26:46;;;;;;;28.43;4.40;;;;;;;3.79;100.00;101761.50;5025366;28;20212;-72
2023/01/31 02:29:45;;;;;;;14.07;3.10;;;;;;;3.77;100.00;101765.63;5021524;28;20186;-72
2023/01/31 02:32:29;;;;;;;15.70;2.97;;;;;;;3.72;100.00;101762.78;5029086;28;20220;-70
2023/01/31 02:35:23;;;;;;;18.37;2.67;;;;;;;3.66;100.00;101757.38;5026288;28;20198;-73
2023/01/31 02:38:13;;;;;;;18.27;3.07;;;;;;;3.67;100.00;101764.16;5021974;28;20221;-71
2023/01/31 02:40:45;;;;;;;16.43;2.77;;;;;;;3.69;100.00;101760.06;5022586;28;20198;-70
2023/01/31 02:43:22;;;;;;;19.30;2.70;;;;;;;3.73;100.00;101764.53;5021560;28;20294;-70
2023/01/31 02:46:01;;;;;;;16.97;2.70;;;;;;;3.74;100.00;101775.56;5020707;28;20197;-69
2023/01/31 02:48:42;;;;;;;15.40;3.10;;;;;;;3.76;100.00;101777.41;5028206;28;20186;-71
2023/01/31 02:51:23;;;;;;;20.03;3.43;;;;;;;3.79;100.00;101767.47;5029980;28;20299;-73
2023/01/31 02:53:58;;;;;;;21.60;3.50;;;;;;;3.84;100.00;101765.19;5029057;28;20197;-73
2023/01/31 02:56:29;;;;;;;17.70;3.63;;;;;;;3.87;100.00;101770.47;5027314;28;20244;-73
2023/01/31 02:58:59;;;;;;;16.80;2.90;;;;;;;3.89;100.00;101756.22;5027985;28;20207;-73
2023/01/31 03:01:30;;;;;;;19.90;3.10;;;;;;;3.91;100.00;101768.19;5022984;28;20210;-73
2023/01/31 03:03:58;;;;;;;13.97;2.70;;;;;;;3.95;100.00;101760.00;5026602;28;20252;-71
2023/01/31 03:06:24;;;;;;;17.60;2.60;;;;;;;3.96;100.00;101758.34;5023171;28;20190;-72
2023/01/31 03:09:20;;;;;;;19.13;3.43;;;;;;;3.98;100.00;101766.91;5024029;28;20218;-72
2023/01/31 03:12:35;;;;;;;17.63;2.53;;;;;;;3.97;100.00;101768.56;5009860;28;20264;-72
2023/01/31 03:15:00;;;;;;;15.53;2.50;;;;;;;3.98;100.00;101754.22;4993307;28;20220;-70
2023/01/31 03:17:59;;;;;;;14.77;2.13;;;;;;;4.00;100.00;101755.22;5022075;28;20225;-73
2023/01/31 03:20:35;;;;;;;13.57;2.30;;;;;;;3.98;100.00;101746.63;5027080;28;20202;-73
2023/01/31 03:23:07;;;;;;;11.33;2.20;;;;;;;3.96;100.00;101746.53;5026884;28;20221;-73
2023/01/31 03:25:36;;;;;;;15.97;2.97;;;;;;;3.97;100.00;101755.03;5032391;28;20204;-73
2023/01/31 03:28:09;;;;;;;15.37;2.33;;;;;;;3.99;100.00;101754.31;5023841;28;20201;-71
2023/01/31 03:30:45;;;;;;;13.57;2.23;;;;;;;4.00;100.00;101751.00;5038355;28;20264;-72
2023/01/31 03:33:16;;;;;;;8.17;1.80;;;;;;;4.00;100.00;101751.00;5026752;28;20244;-72
2023/01/31 03:35:51;;;;;;;12.80;2.70;;;;;;;3.97;100.00;101750.84;5024682;28;20245;-73
2023/01/31 03:38:21;;;;;;;12.27;2.50;;;;;;;3.94;100.00;101753.19;5020824;28;20300;-73
2023/01/31 03:40:57;;;;;;;15.43;2.33;;;;;;;3.90;100.00;101757.94;5023096;28;20197;-73
2023/01/31 03:43:53;;;;;;;12.73;2.07;;;;;;;3.85;100.00;101752.63;5024889;28;20659;-71
2023/01/31 03:46:23;;;;;;;8.77;1.90;;;;;;;3.76;100.00;101749.53;5022334;28;20195;-73
2023/01/31 03:48:52;;;;;;;13.10;2.10;;;;;;;3.70;100.00;101748.28;5030091;28;20893;-73
2023/01/31 03:51:23;;;;;;;11.37;2.00;;;;;;;3.63;100.00;101747.03;5026122;28;20214;-73
2023/01/31 03:53:54;;;;;;;11.67;1.57;;;;;;;3.55;100.00;101758.34;5027892;28;20194;-73
2023/01/31 03:56:26;;;;;;;12.93;1.87;;;;;;;3.48;100.00;101762.94;5020504;28;20226;-73
2023/01/31 03:59:07;;;;;;;7.63;1.50;;;;;;;3.44;100.00;101766.06;5042484;28;20218;-73
2023/01/31 04:01:39;;;;;;;12.67;2.27;;;;;;;3.39;100.00;101760.72;5026420;28;20675;-73
2023/01/31 04:04:09;;;;;;;11.63;2.10;;;;;;;3.38;100.00;101764.03;5022218;28;20193;-73
2023/01/31 04:06:35;;;;;;;9.83;1.87;;;;;;;3.40;100.00;101765.00;5027859;28;20190;-73
2023/01/31 04:09:00;;;;;;;17.40;3.43;;;;;;;3.46;100.00;101770.47;5025665;28;20189;-73
2023/01/31 04:11:27;;;;;;;22.70;3.17;;;;;;;3.51;100.00;101764.03;5027527;28;20231;-73
2023/01/31 04:13:53;;;;;;;20.13;3.20;;;;;;;3.58;100.00;101760.22;5026286;28;20278;-73
2023/01/31 04:16:18;;;;;;;18.60;2.90;;;;;;;3.60;100.00;101759.53;5025597;28;20720;-72
2023/01/31 04:18:44;;;;;;;14.80;2.83;;;;;;;3.60;100.00;101758.66;5023710;28;20213;-73
2023/01/31 04:21:09;;;;;;;17.60;3.47;;;;;;;3.61;100.00;101761.28;5027878;28;20210;-72
2023/01/31 04:23:35;;;;;;;20.50;3.07;;;;;;;3.66;100.00;101761.53;5026118;28;20727;-73
2023/01/31 04:26:01;;;;;;;21.67;3.13;;;;;;;3.65;100.00;101754.72;5024619;28;20193;-73
2023/01/31 04:28:26;;;;;;;22.23;2.87;;;;;;;3.68;100.00;101747.34;5027948;28;20245;-70
2023/01/31 04:30:53;;;;;;;17.57;3.53;;;;;;;3.73;100.00;101745.97;5029750;28;20190;-73
2023/01/31 04:33:19;;;;;;;23.50;3.60;;;;;;;3.71;100.00;101738.25;5009268;28;20269;-73
2023/01/31 04:35:44;;;;;;;19.63;2.83;;;;;;;3.72;100.00;101747.59;5027466;28;20667;-71
2023/01/31 04:38:10;;;;;;;19.40;2.80;;;;;;;3.74;100.00;101729.97;5025354;28;20210;-73
2023/01/31 04:40:35;;;;;;;14.30;2.13;;;;;;;3.74;100.00;101747.69;5022030;28;20191;-73
2023/01/31 04:43:01;;;;;;;16.37;2.80;;;;;;;3.77;100.00;101735.22;5028709;28;20249;-71
2023/01/31 04:45:26;;;;;;;14.50;3.10;;;;;;;3.79;100.00;101732.00;5024719;28;20190;-72
2023/01/31 04:47:52;;;;;;;24.63;3.00;;;;;;;3.79;100.00;101732.00;5033345;28;20223;-74
2023/01/31 04:50:17;;;;;;;19.73;3.13;;;;;;;3.81;100.00;101729.53;5028660;28;20277;-72
2023/01/31 04:52:42;;;;;;;16.13;2.63;;;;;;;3.82;100.00;101728.78;5025978;28;20222;-73
2023/01/31 04:55:08;;;;;;;18.87;3.03;;;;;;;3.84;100.00;101733.16;5028461;28;20720;-73
2023/01/31 04:57:34;;;;;;;21.00;2.77;;;;;;;3.85;100.00;101737.44;5028569;28;20742;-72
2023/01/31 04:59:59;;;;;;;16.67;2.73;;;;;;;3.86;100.00;101734.09;5032524;28;20205;-73
2023/01/31 05:02:24;;;;;;;16.73;3.30;;;;;;;3.88;100.00;101724.97;5022595;28;20250;-73
2023/01/31 05:04:50;;;;;;;17.13;2.80;;;;;;;3.89;100.00;101728.34;5015425;28;20284;-70
2023/01/31 05:07:15;;;;;;;16.53;3.13;;;;;;;3.91;100.00;101725.13;5024811;28;20682;-72
2023/01/31 05:09:44;;;;;;;18.20;2.67;;;;;;;3.93;100.00;101722.69;5028540;28;20202;-72
2023/01/31 05:12:09;;;;;;;18.00;2.50;;;;;;;3.94;100.00;101722.78;5030346;28;20214;-73
2023/01/31 05:14:35;;;;;;;16.53;2.30;;;;;;;3.96;100.00;101723.75;5030634;28;20190;-73
2023/01/31 05:17:01;;;;;;;10.87;2.63;;;;;;;3.98;100.00;101717.13;5027990;28;20193;-73
2023/01/31 05:19:27;;;;;;;14.33;2.53;;;;;;;4.01;100.00;101732.47;5030259;28;20730;-73
2023/01/31 05:21:57;;;;;;;18.50;2.83;;;;;;;4.04;100.00;101730.13;5026243;28;20215;-71
2023/01/31 05:24:29;;;;;;;20.70;2.50;;;;;;;4.08;100.00;101731.19;5030927;28;20205;-72
2023/01/31 05:26:57;;;;;;;15.33;2.60;;;;;;;4.10;100.00;101724.56;5029712;28;20191;-73
2023/01/31 05:29:31;;;;;;;19.30;3.00;;;;;;;4.09;100.00;101731.28;5027292;28;20190;-73
2023/01/31 05:31:59;;;;;;;17.83;3.17;;;;;;;4.11;100.00;101737.34;5039738;28;20688;-72
2023/01/31 05:34:25;;;;;;;18.47;3.17;;;;;;;4.13;100.00;101735.75;5030361;28;20198;-73
2023/01/31 05:36:51;;;;;;;18.93;2.60;;;;;;;4.14;100.00;101732.44;5032015;28;20194;-71
2023/01/31 05:39:17;;;;;;;14.63;3.60;;;;;;;4.14;100.00;101731.56;5024038;28;20293;-73
2023/01/31 05:41:43;;;;;;;23.30;3.37;;;;;;;4.14;100.00;101729.91;5031004;28;20352;-72
2023/01/31 05:44:09;;;;;;;17.40;3.30;;;;;;;4.17;100.00;101734.25;5029450;28;20235;-72
2023/01/31 05:46:35;;;;;;;14.57;3.13;;;;;;;4.18;100.00;101724.22;5027128;28;20198;-73
2023/01/31 05:49:01;;;;;;;21.10;4.27;;;;;;;4.19;100.00;101725.13;5030316;28;20198;-73
2023/01/31 05:51:26;;;;;;;24.53;3.37;;;;;;;4.20;100.00;101712.53;5030596;28;20297;-71
2023/01/31 05:53:53;;;;;;;22.30;4.10;;;;;;;4.22;100.00;101717.66;5028105;28;20676;-73
2023/01/31 05:56:19;;;;;;;18.33;3.23;;;;;;;4.23;100.00;101720.28;5025021;28;20202;-72
2023/01/31 05:58:49;;;;;;;21.63;3.63;;;;;;;4.24;100.00;101708.50;5024551;28;20210;-73
2023/01/31 06:01:25;;;;;;;26.53;4.13;;;;;;;4.26;100.00;101709.47;5028715;28;20833;-73
2023/01/31 06:03:51;;;;;;;20.17;3.77;;;;;;;4.27;100.00;101709.56;5029802;28;20240;-72
2023/01/31 06:06:17;;;;;;;16.97;3.43;;;;;;;4.29;100.00;101710.53;5023417;28;20578;-74
2023/01/31 06:08:42;;;;;;;18.30;4.27;;;;;;;4.30;100.00;101703.78;5030729;28;20194;-73
2023/01/31 06:11:12;;;;;;;20.77;3.77;;;;;;;4.30;100.00;101703.78;5032487;28;20228;-72
2023/01/31 06:13:39;;;;;;;24.30;4.03;;;;;;;4.35;100.00;101707.47;5032277;28;20205;-72
2023/01/31 06:16:05;;;;;;;21.17;3.37;;;;;;;4.33;100.00;101706.50;5037825;28;20871;-73
2023/01/31 06:18:31;;;;;;;23.23;4.33;;;;;;;4.32;100.00;101704.78;5028217;28;20302;-73
2023/01/31 06:20:56;;;;;;;19.63;2.83;;;;;;;4.35;100.00;101710.88;5030534;28;20198;-71
2023/01/31 06:23:22;;;;;;;21.07;3.60;;;;;;;4.37;100.00;101701.69;5031467;28;20285;-73
2023/01/31 06:25:53;;;;;;;20.93;3.90;;;;;;;4.37;100.00;101704.22;5024777;28;20215;-72
2023/01/31 06:28:18;;;;;;;20.23;3.43;;;;;;;4.39;100.00;101700.13;5028012;28;20191;-71
2023/01/31 06:30:44;;;;;;;19.17;3.23;;;;;;;4.41;100.00;101703.63;5028786;28;20643;-73
2023/01/31 06:33:11;;;;;;;21.07;4.03;;;;;;;4.40;100.00;101693.38;5029842;28;20572;-72
2023/01/31 06:35:37;;;;;;;23.93;3.50;;;;;;;4.39;100.00;101684.94;5026991;28;20651;-70
2023/01/31 06:38:02;;;;;;;35.03;4.60;;;;;;;4.39;100.00;101690.00;5025964;28;20220;-72
2023/01/31 06:40:28;;;;;;;22.23;3.80;;;;;;;4.40;100.00;101681.59;5029854;28;20226;-72
2023/01/31 06:42:53;;;;;;;23.37;3.60;;;;;;;4.42;100.00;101684.22;5033157;28;20272;-72
2023/01/31 06:45:19;;;;;;;22.93;3.10;;;;;;;4.40;100.00;101670.56;5028516;28;20191;-72
2023/01/31 06:47:45;;;;;;;31.07;3.97;;;;;;;4.45;100.00;101684.38;5030941;28;20198;-73
2023/01/31 06:50:11;;;;;;;17.20;3.80;;;;;;;4.47;100.00;101677.75;5026819;28;20194;-72
2023/01/31 06:52:38;;;;;;;17.77;3.47;;;;;;;4.47;100.00;101675.22;5030011;28;20210;-73
2023/01/31 06:55:04;;;;;;;16.80;3.40;;;;;;;4.48;100.00;101670.25;5029409;28;20564;-70
2023/01/31 06:57:29;;;;;;;17.43;2.97;;;;;;;4.50;100.00;101661.03;5028128;28;20297;-70
2023/01/31 06:59:55;;;;;;;16.33;3.50;;;;;;;4.48;100.00;101660.09;5029540;28;20305;-72
2023/01/31 07:02:20;;;;;;;24.77;4.23;;;;;;;4.50;100.00;101655.09;5032025;28;20563;-72
2023/01/31 07:04:46;;;;;;;16.27;3.43;;;;;;;4.50;100.00;101653.44;5030096;28;20277;-71
2023/01/31 07:07:11;;;;;;;16.10;3.53;;;;;;;4.50;100.00;101642.41;5026367;28;20198;-72
2023/01/31 07:09:36;;;;;;;19.27;3.23;;;;;;;4.51;100.00;101639.13;5028558;28;20265;-72
2023/01/31 07:12:02;;;;;;;22.37;3.80;;;;;;;4.48;100.00;101632.22;5031336;28;20257;-71
2023/01/31 07:14:27;;;;;;;21.10;3.70;;;;;;;4.47;100.00;101627.91;5027507;28;20190;-73
2023/01/31 07:16:53;;;;;;;19.10;4.03;;;;;;;4.45;100.00;101629.50;5029664;28;20187;-72
2023/01/31 07:19:18;;;;;;;14.83;3.50;;;;;;;4.47;100.00;101630.44;5029981;28;20742;-72
2023/01/31 07:21:46;;;;;;;23.40;4.50;;;;;;;4.48;100.00;101614.47;5027435;28;20218;-72
2023/01/31 07:24:11;;;;;;;17.33;3.70;;;;;;;4.47;100.00;101602.53;5027745;28;20621;-71
2023/01/31 07:26:36;;;;;;;17.73;3.97;;;;;;;4.47;100.00;101602.53;5026379;28;20194;-72
2023/01/31 07:29:02;;;;;;;20.47;4.47;;;;;;;4.48;100.00;101591.66;5030464;28;20654;-72
2023/01/31 07:31:27;;;;;;;22.57;3.57;;;;;;;4.50;100.00;101600.19;5031183;28;20538;-71
2023/01/31 07:33:53;;;;;;;15.90;3.63;;;;;;;4.51;100.00;101598.53;5032489;28;20197;-71
2023/01/31 07:36:23;;;;;;;20.93;4.33;;;;;;;4.53;100.00;101595.31;5030979;28;20285;-72
2023/01/31 07:38:48;;;;;;;22.07;4.60;;;;;;;4.54;100.00;101586.00;5028804;28;20214;-72
2023/01/31 07:41:14;;;;;;;19.17;4.93;;;;;;;4.55;100.00;101581.03;5028304;28;20632;-70
2023/01/31 07:43:39;;;;;;;21.13;5.27;;;;;;;4.56;100.00;101580.25;5029669;28;20699;-71
2023/01/31 07:46:08;;;;;;;28.47;5.37;;;;;;;4.57;100.00;101583.66;5027747;28;20225;-72
2023/01/31 07:48:33;;;;;;;19.00;5.00;;;;;;;4.58;100.00;101580.31;5027524;28;20179;-71
2023/01/31 07:51:00;;;;;;;20.50;4.57;;;;;;;4.60;100.00;101578.75;5031248;28;21034;-73
2023/01/31 07:53:32;;;;;;;24.80;5.23;;;;;;;4.62;100.00;101567.03;5031729;28;20201;-72
2023/01/31 07:56:09;;;;;;;27.40;5.90;;;;;;;4.64;100.00;101562.91;5031422;28;20206;-72
2023/01/31 07:58:35;;;;;;;23.40;6.63;;;;;;;4.67;100.00;101563.97;5030669;28;20297;-72
2023/01/31 08:03:45;;;;;;;24.30;6.10;;;;;;;4.74;100.00;101549.94;5028401;28;20191;-72
2023/01/31 08:06:12;;;;;;;34.27;6.50;;;;;;;4.79;100.00;101546.00;5030215;28;20189;-72
2023/01/31 08:08:39;;;;;;;29.00;7.27;;;;;;;4.80;100.00;101555.34;5029079;28;20244;-72
2023/01/31 08:11:05;;;;;;;18.53;6.63;;;;;;;4.83;100.00;101550.44;5030740;28;20221;-72
2023/01/31 08:13:32;;;;;;;24.00;6.20;;;;;;;4.84;100.00;101537.81;5028872;28;20194;-72
2023/01/31 08:15:58;;;;;;;21.97;8.13;;;;;;;4.88;100.00;101552.41;5025395;28;20317;-72
2023/01/31 08:18:24;;;;;;;21.83;7.67;;;;;;;4.89;100.00;101538.06;5025183;28;20211;-71
2023/01/31 08:20:50;;;;;;;25.67;7.10;;;;;;;4.93;100.00;101530.69;5034784;28;20201;-73
2023/01/31 08:23:15;;;;;;;19.17;6.43;;;;;;;4.95;100.00;101530.78;5034998;28;20194;-72
2023/01/31 08:25:41;;;;;;;26.87;7.17;;;;;;;4.97;100.00;101525.00;5034236;28;20202;-71
2023/01/31 08:28:06;;;;;;;25.97;7.00;;;;;;;4.99;100.00;101515.81;5030385;28;20269;-72
2023/01/31 08:30:32;;;;;;;24.00;7.40;;;;;;;5.03;100.00;101501.59;5030871;28;20205;-72
2023/01/31 08:32:57;;;;;;;23.90;7.63;;;;;;;5.02;100.00;101498.19;5032367;28;20221;-72
2023/01/31 08:35:24;;;;;;;24.43;7.40;;;;;;;5.03;100.00;101501.59;5031537;28;20285;-71
2023/01/31 08:37:50;;;;;;;24.80;7.80;;;;;;;5.07;100.00;101498.44;5031749;28;20190;-72
2023/01/31 08:40:15;;;;;;;25.40;7.27;;;;;;;5.09;100.00;101489.22;5031790;28;20568;-71
2023/01/31 08:42:41;;;;;;;21.37;6.83;;;;;;;5.13;100.00;101498.75;5027245;28;20692;-70
2023/01/31 08:45:07;;;;;;;23.67;7.73;;;;;;;5.13;100.00;101511.44;5029482;28;20198;-72
2023/01/31 08:47:33;;;;;;;23.07;6.70;;;;;;;5.15;100.00;101509.88;5017881;28;20191;-72
2023/01/31 08:49:58;;;;;;;19.37;6.67;;;;;;;5.15;100.00;101507.31;5035388;28;20674;-72
2023/01/31 08:52:23;;;;;;;24.20;7.33;;;;;;;5.15;100.00;101497.19;5032291;28;20583;-71
2023/01/31 08:54:49;;;;;;;25.30;7.60;;;;;;;5.15;100.00;101482.81;5034768;28;20605;-72
2023/01/31 08:57:15;;;;;;;25.43;6.77;;;;;;;5.16;100.00;101487.06;5032990;28;20222;-73
2023/01/31 08:59:40;;;;;;;20.50;7.20;;;;;;;5.18;100.00;101493.13;5031644;28;20214;-72
2023/01/31 09:02:06;;;;;;;23.03;6.67;;;;;;;5.23;100.00;101480.66;5033461;28;20218;-71
2023/01/31 09:04:31;;;;;;;28.93;7.20;;;;;;;5.29;100.00;101461.53;5030932;28;20194;-72
2023/01/31 09:06:57;;;;;;;20.83;7.20;;;;;;;5.33;100.00;101460.00;5028247;28;20198;-72
2023/01/31 09:09:24;;;;;;;20.70;6.70;;;;;;;5.33;100.00;101463.41;5032236;28;20222;-71
2023/01/31 09:11:50;;;;;;;20.57;6.53;;;;;;;5.32;100.00;101460.81;5036008;28;20214;-73
2023/01/31 09:14:15;;;;;;;24.93;7.03;;;;;;;5.31;100.00;101452.34;5030139;28;20190;-72
2023/01/31 09:16:41;;;;;;;21.70;6.80;;;;;;;5.29;100.00;101450.50;5032937;28;20713;-72
2023/01/31 09:19:06;;;;;;;17.53;6.27;;;;;;;5.30;100.00;101440.41;5033668;28;20320;-72
2023/01/31 09:21:32;;;;;;;19.67;6.43;;;;;;;5.30;100.00;101442.09;5032923;28;20249;-73
2023/01/31 09:24:01;;;;;;;24.00;7.23;;;;;;;5.31;100.00;101436.22;5032933;28;20217;-72
2023/01/31 09:26:27;;;;;;;22.37;6.87;;;;;;;5.31;100.00;101434.56;5033222;28;20198;-73
2023/01/31 09:28:53;;;;;;;28.67;7.23;;;;;;;5.32;100.00;101428.69;5031538;28;20218;-73
2023/01/31 09:31:19;;;;;;;18.07;6.30;;;;;;;5.31;100.00;101418.44;5030729;28;20245;-72
2023/01/31 09:33:45;;;;;;;26.13;7.73;;;;;;;5.31;100.00;101409.19;5033653;28;20244;-71
2023/01/31 09:36:16;;;;;;;22.93;6.97;;;;;;;5.32;100.00;101400.75;5034888;28;20205;-72
2023/01/31 09:38:42;;;;;;;29.30;8.40;;;;;;;5.26;100.00;101403.00;5033172;28;20210;-71
2023/01/31 09:41:42;;;;;;;25.20;7.90;;;;;;;5.24;100.00;101399.50;5034479;28;20772;-72
2023/01/31 09:44:10;;;;;;;21.50;8.07;;;;;;;5.28;100.00;101391.25;5006450;28;20225;-71
2023/01/31 09:46:40;;;;;;;22.00;8.40;;;;;;;5.23;100.00;101384.19;5030751;28;20200;-71
2023/01/31 09:49:13;;;;;;;23.73;8.23;;;;;;;5.30;100.00;101382.03;5032491;28;20272;-72
2023/01/31 09:51:39;;;;;;;20.53;8.27;;;;;;;5.26;100.00;101381.81;5030788;28;20225;-71
2023/01/31 09:54:13;;;;;;;19.57;8.37;;;;;;;5.23;100.00;101371.50;5029218;28;20194;-71
2023/01/31 09:56:38;;;;;;;21.77;8.53;;;;;;;5.18;100.00;101358.59;5030254;28;20546;-72
2023/01/31 09:59:28;;;;;;;23.17;8.73;;;;;;;5.18;100.00;101357.72;5033235;28;20243;-71
2023/01/31 10:02:08;;;;;;;18.73;8.70;;;;;;;5.18;100.00;101334.88;5031280;28;20219;-72
2023/01/31 10:04:56;;;;;;;19.37;8.00;;;;;;;5.21;100.00;101337.56;5029380;28;20194;-71
2023/01/31 10:07:30;;;;;;;17.07;8.53;;;;;;;5.19;100.00;101332.41;5023090;28;20198;-72
2023/01/31 10:10:13;;;;;;;17.23;8.83;;;;;;;5.21;100.00;101328.28;5027553;28;20197;-71
2023/01/31 10:12:40;;;;;;;20.53;8.63;;;;;;;5.20;100.00;101329.06;5029003;28;20309;-70
2023/01/31 10:15:28;;;;;;;20.60;9.10;;;;;;;5.19;100.00;101321.38;5028705;28;21059;-72
2023/01/31 10:18:09;;;;;;;21.07;8.90;;;;;;;5.17;100.00;101312.84;5028335;28;20190;-71
2023/01/31 10:20:45;;;;;;;18.30;9.27;;;;;;;5.18;100.00;101312.91;5026825;28;20194;-72
2023/01/31 10:23:28;;;;;;;22.90;9.80;;;;;;;5.22;100.00;101302.13;5030292;28;20201;-72
2023/01/31 10:26:24;;;;;;;18.47;9.77;;;;;;;5.18;100.00;101317.09;5034580;28;20222;-73
2023/01/31 10:28:59;;;;;;;17.23;8.90;;;;;;;5.21;100.00;101312.19;5044864;28;20738;-73
2023/01/31 10:31:28;;;;;;;18.10;9.60;;;;;;;5.22;100.00;101303.78;5032429;28;20222;-71
2023/01/31 10:34:41;;;;;;;19.60;9.77;;;;;;;5.22;100.00;101304.66;5032932;28;20234;-72
2023/01/31 10:37:24;;;;;;;21.50;10.27;;;;;;;5.23;100.00;101298.78;4949248;28;20200;-72
2023/01/31 10:39:59;;;;;;;20.17;10.07;;;;;;;5.24;100.00;101294.53;5021473;28;20712;-72
2023/01/31 10:42:30;;;;;;;19.27;9.77;;;;;;;5.25;100.00;101298.84;5030146;28;20244;-71
2023/01/31 10:45:29;;;;;;;27.70;11.13;;;;;;;5.30;100.00;101292.31;5023939;28;20202;-72
2023/01/31 10:48:11;;;;;;;20.10;11.20;;;;;;;5.28;100.00;101286.28;5008115;28;20245;-71
2023/01/31 10:51:01;;;;;;;20.33;10.53;;;;;;;5.33;100.00;101275.56;5031098;28;20273;-72
2023/01/31 10:54:00;;;;;;;24.33;12.33;;;;;;;5.34;100.00;101266.28;5029446;28;20194;-71
2023/01/31 10:56:31;;;;;;;26.67;11.27;;;;;;;5.36;100.00;101260.47;5028168;28;20744;-69
2023/01/31 10:58:58;;;;;;;29.87;11.80;;;;;;;5.40;100.00;101252.22;5029524;28;20336;-72
2023/01/31 11:01:24;;;;;;;23.97;11.90;;;;;;;5.40;100.00;101238.63;5027063;28;20279;-71
2023/01/31 11:03:52;;;;;;;22.47;12.60;;;;;;;5.41;100.00;101247.97;5030497;28;20965;-72
2023/01/31 11:06:18;;;;;;;26.23;13.27;;;;;;;5.40;100.00;101233.56;5025443;28;20203;-72
2023/01/31 11:09:00;;;;;;;24.03;12.80;;;;;;;5.39;100.00;101239.44;5026089;28;20186;-71
2023/01/31 11:11:28;;;;;;;26.20;13.73;;;;;;;5.42;100.00;101229.41;5024893;28;20241;-71
2023/01/31 11:14:02;;;;;;;27.77;12.63;;;;;;;5.44;100.00;101230.34;5028200;28;20281;-72
2023/01/31 11:16:32;;;;;;;25.00;12.40;;;;;;;5.45;100.00;101211.78;5028491;28;20205;-70
2023/01/31 11:19:00;;;;;;;24.10;12.90;;;;;;;5.48;100.00;101209.38;5032022;28;20304;-72
2023/01/31 11:21:30;;;;;;;23.30;13.53;;;;;;;5.55;100.00;101208.84;5031042;28;20214;-72
2023/01/31 11:24:05;;;;;;;24.73;12.17;;;;;;;5.57;100.00;101213.19;5027733;28;20603;-70
2023/01/31 11:26:35;;;;;;;22.13;12.40;;;;;;;5.56;100.00;101218.19;5006347;28;20971;-70
2023/01/31 11:29:06;;;;;;;21.80;12.60;;;;;;;5.58;100.00;101225.09;5026066;28;20569;-71
2023/01/31 11:31:38;;;;;;;20.30;12.57;;;;;;;5.63;100.00;101232.94;5027725;28;20210;-72